Terminal Aerodrome Forecast
Issued by NWS Blacksburg, VA

Home | Current Version | Previous Version | Text Only | Print | Product List | Glossary On
Versions: 1 2 3 4 5 6 7 8 9 10 11 12 13 14 15 16 17 18 19 20 21 22 23 24 25 26 27
000
FTUS41 KRNK 221149
TAFLYH
TAF
KLYH 221149Z 2212/2312 00000KT 5SM BR BKN250
      TEMPO 2212/2213 1SM BR
     FM221400 13006KT P6SM BKN250
     FM230900 13008KT P6SM OVC025=

USA.gov is the U.S. government's official web portal to all federal, state and local government web resources and services.